Time;durP1;ratioP1;P1;durP2;ratioP2;P2;SDS_P1;SDS_P2;PMS_P1;PMS_P2;Temp;Humidity;BMP_temperature;BMP_pressure;BME280_temperature;BME280_humidity;BME280_pressure;Samples;Min_cycle;Max_cycle;Signal;HPM_P1;HPM_P2
2022/01/12 00:00:06;;;;;;;8.73;4.53;;;;;;;-145.82;100.00;61645.16;4964383;28;20129;-69
2022/01/12 00:02:35;;;;;;;7.47;3.93;;;;;;;-145.82;100.00;61645.16;4964263;28;20500;-71
2022/01/12 00:05:01;;;;;;;11.10;3.95;;;;;;;-145.82;100.00;61645.16;4965215;28;20274;-69
2022/01/12 00:07:26;;;;;;;7.95;4.13;;;;;;;-145.82;100.00;61645.16;4964764;28;20552;-71
2022/01/12 00:09:51;;;;;;;8.25;3.85;;;;;;;-145.82;100.00;61645.16;4963542;28;20127;-71
2022/01/12 00:12:17;;;;;;;6.90;3.97;;;;;;;-145.82;100.00;61645.16;4963782;28;20035;-69
2022/01/12 00:14:42;;;;;;;8.00;4.07;;;;;;;-145.82;100.00;61645.16;4964919;28;20545;-69
2022/01/12 00:17:08;;;;;;;9.68;3.83;;;;;;;-145.82;100.00;61645.16;4963147;28;20053;-71
2022/01/12 00:19:33;;;;;;;8.93;3.33;;;;;;;-145.82;100.00;61645.16;4965056;28;20043;-69
2022/01/12 00:21:59;;;;;;;9.00;3.38;;;;;;;-145.82;100.00;61645.16;4962800;28;20030;-69
2022/01/12 00:24:28;;;;;;;9.70;4.20;;;;;;;-145.82;100.00;61645.16;4963851;28;20039;-69
2022/01/12 00:35:07;;;;;;;10.40;4.43;;;;;;;-145.82;100.00;61645.16;4963554;28;20043;-68
2022/01/12 00:37:32;;;;;;;8.80;3.90;;;;;;;-145.82;100.00;61645.16;4978081;28;20051;-69
2022/01/12 00:39:59;;;;;;;9.75;4.38;;;;;;;-145.82;100.00;61645.16;4977257;28;20050;-70
2022/01/12 00:42:27;;;;;;;10.40;3.65;;;;;;;-145.82;100.00;61645.16;4977874;28;20077;-69
2022/01/12 00:44:53;;;;;;;14.02;4.78;;;;;;;-145.82;100.00;61645.16;4978722;28;20081;-69
2022/01/12 00:47:19;;;;;;;8.32;4.28;;;;;;;-145.82;100.00;61645.16;4962958;28;20039;-68
2022/01/12 00:49:46;;;;;;;7.82;4.32;;;;;;;-145.82;100.00;61645.16;4963725;28;20094;-69
2022/01/12 00:52:11;;;;;;;9.82;4.40;;;;;;;-145.82;100.00;61645.16;4963067;28;20414;-69
2022/01/12 00:54:37;;;;;;;8.20;4.20;;;;;;;-145.82;100.00;61645.16;4963812;28;20038;-68
2022/01/12 00:57:04;;;;;;;12.23;5.00;;;;;;;-145.82;100.00;61645.16;4977377;28;20117;-69
2022/01/12 00:59:29;;;;;;;11.38;4.72;;;;;;;-145.82;100.00;61645.16;4963702;28;20050;-70
2022/01/12 01:01:56;;;;;;;8.30;4.53;;;;;;;-145.82;100.00;61645.16;4962353;28;20042;-69
2022/01/12 01:04:25;;;;;;;9.57;4.65;;;;;;;-145.82;100.00;61645.16;4963121;28;20080;-69
2022/01/12 01:06:51;;;;;;;7.20;4.15;;;;;;;-145.82;100.00;61645.16;4976513;28;20064;-70
2022/01/12 01:09:17;;;;;;;8.75;4.57;;;;;;;-145.82;100.00;61645.16;4977107;28;20377;-69
2022/01/12 01:11:42;;;;;;;6.43;3.55;;;;;;;-145.82;100.00;61645.16;4976538;28;20042;-71
2022/01/12 01:14:21;;;;;;;8.63;4.18;;;;;;;-145.82;100.00;61645.16;4964097;28;20038;-69
2022/01/12 01:16:53;;;;;;;7.82;3.95;;;;;;;-145.82;100.00;61645.16;4960300;28;20045;-70
2022/01/12 01:25:28;;;;;;;6.25;3.08;;;;;;;-145.82;100.00;61645.16;4958811;28;20058;-70
2022/01/12 01:27:53;;;;;;;9.65;4.15;;;;;;;-145.82;100.00;61645.16;4961932;28;20041;-69
2022/01/12 01:30:19;;;;;;;9.55;3.70;;;;;;;-145.82;100.00;61645.16;4961165;28;20058;-69
2022/01/12 01:32:46;;;;;;;7.13;3.45;;;;;;;-145.82;100.00;61645.16;4977370;28;20031;-69
2022/01/12 01:35:11;;;;;;;9.88;4.20;;;;;;;-145.82;100.00;61645.16;4977080;28;20030;-70
2022/01/12 01:37:40;;;;;;;8.52;3.85;;;;;;;-145.82;100.00;61645.16;4961449;28;20041;-69
2022/01/12 01:40:11;;;;;;;6.38;3.33;;;;;;;-145.82;100.00;61645.16;4977287;28;20524;-69
2022/01/12 01:53:38;;;;;;;8.30;4.28;;;;;;;-145.82;100.00;61645.16;4979624;28;20364;-69
2022/01/12 01:56:06;;;;;;;8.00;4.20;;;;;;;-145.82;100.00;61645.16;4980095;28;20369;-69
2022/01/12 01:58:32;;;;;;;7.35;4.00;;;;;;;-145.82;100.00;61645.16;4979983;28;20034;-71
2022/01/12 02:00:59;;;;;;;6.40;3.67;;;;;;;-145.82;100.00;61645.16;4980414;28;20167;-69
2022/01/12 02:03:30;;;;;;;7.25;3.80;;;;;;;-145.82;100.00;61645.16;4980553;28;20371;-69
2022/01/12 02:05:59;;;;;;;7.22;4.07;;;;;;;-145.82;100.00;61645.16;4963981;28;20051;-69
2022/01/12 02:08:25;;;;;;;6.85;3.67;;;;;;;-145.82;100.00;61645.16;4981303;28;20019;-69
2022/01/12 02:11:10;;;;;;;9.48;3.55;;;;;;;-145.82;100.00;61645.16;4980463;28;20616;-69
2022/01/12 02:13:36;;;;;;;8.32;3.92;;;;;;;-145.82;100.00;61645.16;4980174;28;20110;-69
2022/01/12 02:16:02;;;;;;;7.85;4.18;;;;;;;-145.82;100.00;61645.16;4980487;28;20047;-69
2022/01/12 02:40:36;;;;;;;9.75;4.30;;;;;;;-145.82;100.00;61645.16;4980217;28;20058;-70
2022/01/12 02:51:10;;;;;;;6.10;3.42;;;;;;;-145.82;100.00;61645.16;4979400;28;20116;-70
2022/01/12 02:53:39;;;;;;;6.90;3.97;;;;;;;-145.82;100.00;61645.16;4979801;28;20043;-70
2022/01/12 02:56:15;;;;;;;11.23;4.30;;;;;;;-145.82;100.00;61645.16;4980197;28;20031;-68
2022/01/12 02:58:42;;;;;;;8.35;3.80;;;;;;;-145.82;100.00;61645.16;4977996;28;20478;-69
2022/01/12 03:03:44;;;;;;;7.47;3.55;;;;;;;-145.82;100.00;61645.16;4979114;28;20051;-69
2022/01/12 03:06:16;;;;;;;7.25;3.53;;;;;;;-145.82;100.00;61645.16;4965019;28;20628;-71
2022/01/12 03:08:42;;;;;;;4.68;2.65;;;;;;;-145.82;100.00;61645.16;4964520;28;20042;-69
2022/01/12 03:11:10;;;;;;;7.28;4.03;;;;;;;-145.82;100.00;61645.16;4963729;28;20120;-69
2022/01/12 03:13:36;;;;;;;6.45;3.13;;;;;;;-145.82;100.00;61645.16;4978910;28;20038;-69
2022/01/12 03:16:11;;;;;;;5.88;3.40;;;;;;;-145.82;100.00;61645.16;4964896;28;20046;-68
2022/01/12 03:18:37;;;;;;;7.15;3.30;;;;;;;-145.82;100.00;61645.16;4964714;28;20057;-69
2022/01/12 03:21:03;;;;;;;5.43;3.20;;;;;;;-145.82;100.00;61645.16;4964819;28;20067;-70
2022/01/12 03:23:31;;;;;;;6.57;3.30;;;;;;;-145.82;100.00;61645.16;4963584;28;20058;-69
2022/01/12 03:25:56;;;;;;;9.32;3.42;;;;;;;-145.82;100.00;61645.16;4979626;28;20511;-68
2022/01/12 03:28:23;;;;;;;6.78;3.42;;;;;;;-145.82;100.00;61645.16;4978461;28;20050;-69
2022/01/12 03:33:35;;;;;;;6.65;3.90;;;;;;;-145.82;100.00;61645.16;4979372;28;20043;-69
2022/01/12 03:38:45;;;;;;;8.43;3.10;;;;;;;-145.82;100.00;61645.16;4964492;28;20026;-68
2022/01/12 03:41:12;;;;;;;6.05;3.05;;;;;;;-145.82;100.00;61645.16;4979255;28;20039;-69
2022/01/12 03:43:37;;;;;;;8.35;3.70;;;;;;;-145.82;100.00;61645.16;4980251;28;20042;-67
2022/01/12 03:46:04;;;;;;;5.78;3.13;;;;;;;-145.82;100.00;61645.16;4979482;28;20030;-68
2022/01/12 03:48:29;;;;;;;5.05;3.00;;;;;;;-145.82;100.00;61645.16;4963937;28;20379;-68
2022/01/12 03:50:56;;;;;;;7.68;3.55;;;;;;;-145.82;100.00;61645.16;4982214;28;20061;-69
2022/01/12 03:53:22;;;;;;;5.90;3.03;;;;;;;-145.82;100.00;61645.16;4966299;28;20089;-68
2022/01/12 03:55:48;;;;;;;8.23;3.10;;;;;;;-145.82;100.00;61645.16;4979924;28;20039;-68
2022/01/12 03:58:15;;;;;;;8.10;3.22;;;;;;;-145.82;100.00;61645.16;4978509;28;20449;-68
2022/01/12 04:00:43;;;;;;;6.50;3.35;;;;;;;-145.82;100.00;61645.16;4980570;28;20034;-69
2022/01/12 04:03:09;;;;;;;7.13;3.33;;;;;;;-145.82;100.00;61645.16;4980247;28;20129;-68
2022/01/12 04:08:20;;;;;;;6.93;3.00;;;;;;;-145.82;100.00;61645.16;4978834;28;20062;-69
2022/01/12 04:10:58;;;;;;;6.78;3.60;;;;;;;-145.82;100.00;61645.16;4964760;28;20133;-70
2022/01/12 04:13:26;;;;;;;6.40;3.28;;;;;;;-145.82;100.00;61645.16;4978529;28;20035;-69
2022/01/12 04:15:55;;;;;;;9.73;3.33;;;;;;;-145.82;100.00;61645.16;4960694;28;20592;-71
2022/01/12 04:18:21;;;;;;;7.88;3.30;;;;;;;-145.82;100.00;61645.16;4978208;28;20116;-69
2022/01/12 04:20:49;;;;;;;3.88;2.33;;;;;;;-145.82;100.00;61645.16;4980341;28;20468;-70
2022/01/12 04:23:19;;;;;;;8.70;3.88;;;;;;;-145.82;100.00;61645.16;4962593;28;20046;-69
2022/01/12 04:25:54;;;;;;;9.73;5.28;;;;;;;-145.82;100.00;61645.16;4978279;28;20386;-68
2022/01/12 04:28:21;;;;;;;8.25;4.43;;;;;;;-145.82;100.00;61645.16;4962341;28;20057;-70
2022/01/12 04:30:48;;;;;;;6.68;3.95;;;;;;;-145.82;100.00;61645.16;4979051;28;20046;-68
2022/01/12 04:33:14;;;;;;;7.72;3.92;;;;;;;-145.82;100.00;61645.16;4977439;28;20062;-68
2022/01/12 04:35:52;;;;;;;7.82;3.65;;;;;;;-145.82;100.00;61645.16;4966336;28;20042;-68
2022/01/12 04:38:20;;;;;;;6.07;3.45;;;;;;;-145.82;100.00;61645.16;4977809;28;20073;-68
2022/01/12 04:40:47;;;;;;;6.95;3.88;;;;;;;-145.82;100.00;61645.16;4964125;28;20034;-69
2022/01/12 04:43:14;;;;;;;8.73;4.25;;;;;;;-145.82;100.00;61645.16;4977350;28;20374;-68
2022/01/12 04:50:49;;;;;;;8.75;4.03;;;;;;;-145.82;100.00;61645.16;4979399;28;20121;-68
2022/01/12 04:53:16;;;;;;;6.65;3.72;;;;;;;-145.82;100.00;61645.16;4959987;28;20034;-68
2022/01/12 04:55:42;;;;;;;6.72;3.63;;;;;;;-145.82;100.00;61645.16;4982026;28;20075;-69
2022/01/12 04:58:09;;;;;;;6.85;4.07;;;;;;;-145.82;100.00;61645.16;4976970;28;20150;-68
2022/01/12 05:00:36;;;;;;;7.57;3.85;;;;;;;-145.82;100.00;61645.16;4965297;28;20046;-69
2022/01/12 05:13:48;;;;;;;7.25;3.72;;;;;;;-145.82;100.00;61645.16;4975421;28;20042;-70
2022/01/12 05:16:15;;;;;;;6.93;3.72;;;;;;;-145.82;100.00;61645.16;4976069;28;20026;-70
2022/01/12 05:18:42;;;;;;;6.43;3.42;;;;;;;-145.82;100.00;61645.16;4963381;28;20038;-68
2022/01/12 05:21:09;;;;;;;8.05;4.30;;;;;;;-145.82;100.00;61645.16;4977923;28;20105;-69
2022/01/12 05:23:36;;;;;;;7.32;3.90;;;;;;;-145.82;100.00;61645.16;4979229;28;20023;-68
2022/01/12 05:26:05;;;;;;;7.68;3.67;;;;;;;-145.82;100.00;61645.16;4963787;28;20038;-68
2022/01/12 05:28:31;;;;;;;5.63;3.25;;;;;;;-145.82;100.00;61645.16;4966620;28;20478;-70
2022/01/12 05:30:58;;;;;;;5.97;3.72;;;;;;;-145.82;100.00;61645.16;4981858;28;20058;-69
2022/01/12 05:33:26;;;;;;;9.50;3.35;;;;;;;-145.82;100.00;61645.16;4965763;28;20046;-69
2022/01/12 05:35:54;;;;;;;7.03;3.83;;;;;;;-145.82;100.00;61645.16;4983686;28;20047;-68
2022/01/12 05:38:21;;;;;;;7.75;3.50;;;;;;;-145.82;100.00;61645.16;4965109;28;20037;-70
2022/01/12 05:41:00;;;;;;;6.72;3.50;;;;;;;-145.82;100.00;61645.16;4967299;28;20048;-70
2022/01/12 05:43:29;;;;;;;7.60;3.33;;;;;;;-145.82;100.00;61645.16;4980404;28;20078;-69
2022/01/12 05:45:57;;;;;;;8.15;3.80;;;;;;;-145.82;100.00;61645.16;4967903;28;20034;-69
2022/01/12 05:51:09;;;;;;;8.98;3.88;;;;;;;-145.82;100.00;61645.16;4982247;28;20121;-68
2022/01/12 05:53:35;;;;;;;6.45;3.78;;;;;;;-145.82;100.00;61645.16;4965019;28;20134;-70
2022/01/12 05:56:01;;;;;;;7.78;3.28;;;;;;;-145.82;100.00;61645.16;4982918;28;20058;-68
2022/01/12 05:58:29;;;;;;;7.10;3.55;;;;;;;-145.82;100.00;61645.16;4980844;28;20427;-70
2022/01/12 06:00:54;;;;;;;6.25;3.03;;;;;;;-145.82;100.00;61645.16;4964907;28;20050;-69
2022/01/12 06:03:20;;;;;;;7.60;3.80;;;;;;;-145.82;100.00;61645.16;4967068;28;20035;-68
2022/01/12 06:05:46;;;;;;;8.63;3.78;;;;;;;-145.82;100.00;61645.16;4965380;28;20474;-68
2022/01/12 06:08:12;;;;;;;8.15;3.90;;;;;;;-145.82;100.00;61645.16;4979786;28;20073;-70
2022/01/12 06:10:37;;;;;;;5.65;2.67;;;;;;;-145.82;100.00;61645.16;4967085;28;20540;-68
2022/01/12 06:13:04;;;;;;;7.60;4.25;;;;;;;-145.82;100.00;61645.16;4981252;28;20065;-70
2022/01/12 06:15:29;;;;;;;8.50;4.38;;;;;;;-145.82;100.00;61645.16;4982248;28;20614;-67
2022/01/12 06:17:55;;;;;;;6.57;3.55;;;;;;;-145.82;100.00;61645.16;4965427;28;20102;-68
2022/01/12 06:20:22;;;;;;;9.10;4.25;;;;;;;-145.82;100.00;61645.16;4983428;28;20051;-69
2022/01/12 06:23:07;;;;;;;14.30;4.88;;;;;;;-145.82;100.00;61645.16;4966434;28;20056;-69
2022/01/12 06:25:35;;;;;;;7.13;4.20;;;;;;;-145.82;100.00;61645.16;4966052;28;20094;-68
2022/01/12 06:28:22;;;;;;;12.00;4.82;;;;;;;-145.82;100.00;61645.16;4963765;28;20113;-68
2022/01/12 06:33:34;;;;;;;8.27;4.30;;;;;;;-145.82;100.00;61645.16;4981214;28;20039;-69
2022/01/12 06:35:59;;;;;;;12.02;5.05;;;;;;;-145.82;100.00;61645.16;4980485;28;20346;-70
2022/01/12 06:38:25;;;;;;;8.55;4.07;;;;;;;-145.82;100.00;61645.16;4964394;28;20370;-68
2022/01/12 06:40:51;;;;;;;7.88;4.80;;;;;;;-145.82;100.00;61645.16;4967009;28;20038;-69
2022/01/12 06:43:16;;;;;;;14.18;6.25;;;;;;;-145.82;100.00;61645.16;4981608;28;20632;-68
2022/01/12 06:45:42;;;;;;;10.82;4.90;;;;;;;-145.82;100.00;61645.16;4980119;28;20371;-68
2022/01/12 06:48:08;;;;;;;11.48;5.57;;;;;;;-145.82;100.00;61645.16;4979872;28;20043;-69
2022/01/12 06:50:33;;;;;;;10.93;5.45;;;;;;;-145.82;100.00;61645.16;4966080;28;20050;-70
2022/01/12 06:52:59;;;;;;;9.88;5.93;;;;;;;-145.82;100.00;61645.16;4962832;28;20030;-68
2022/01/12 06:55:24;;;;;;;12.75;5.88;;;;;;;-145.82;100.00;61645.16;4979705;28;20038;-69
2022/01/12 06:57:50;;;;;;;10.65;5.70;;;;;;;-145.82;100.00;61645.16;4979248;28;20043;-69
2022/01/12 07:00:16;;;;;;;9.32;5.18;;;;;;;-145.82;100.00;61645.16;4978080;28;20059;-68
2022/01/12 07:02:42;;;;;;;11.20;6.05;;;;;;;-145.82;100.00;61645.16;4981124;28;20391;-69
2022/01/12 07:05:10;;;;;;;12.63;6.07;;;;;;;-145.82;100.00;61645.16;4979656;28;20536;-68
2022/01/12 07:07:36;;;;;;;25.48;11.20;;;;;;;-145.82;100.00;61645.16;4981070;28;20027;-68
2022/01/12 07:10:08;;;;;;;26.83;11.18;;;;;;;-145.82;100.00;61645.16;4963991;28;20045;-70
2022/01/12 07:12:36;;;;;;;25.55;11.77;;;;;;;-145.82;100.00;61645.16;4979270;28;20114;-70
2022/01/12 07:15:04;;;;;;;22.35;9.95;;;;;;;-145.82;100.00;61645.16;4979607;28;20043;-68
2022/01/12 07:17:33;;;;;;;18.85;9.60;;;;;;;-145.82;100.00;61645.16;4980295;28;20039;-68
2022/01/12 07:19:59;;;;;;;19.13;9.20;;;;;;;-145.82;100.00;61645.16;4979547;28;20046;-68
2022/01/12 07:22:25;;;;;;;12.85;6.95;;;;;;;-145.82;100.00;61645.16;4983053;28;20108;-68
2022/01/12 07:24:50;;;;;;;10.63;6.05;;;;;;;-145.82;100.00;61645.16;4965614;28;20034;-69
2022/01/12 07:27:16;;;;;;;10.55;5.65;;;;;;;-145.82;100.00;61645.16;4963954;28;20050;-68
2022/01/12 07:29:41;;;;;;;12.60;6.28;;;;;;;-145.82;100.00;61645.16;4965721;28;20126;-70
2022/01/12 07:32:07;;;;;;;12.15;6.18;;;;;;;-145.82;100.00;61645.16;4963602;28;20059;-69
2022/01/12 07:34:32;;;;;;;10.38;5.50;;;;;;;-145.82;100.00;61645.16;4979980;28;20546;-68
2022/01/12 07:36:58;;;;;;;11.07;6.18;;;;;;;-145.82;100.00;61645.16;4963450;28;20027;-68
2022/01/12 07:39:23;;;;;;;12.90;6.40;;;;;;;-145.82;100.00;61645.16;4964978;28;20082;-69
2022/01/12 07:41:49;;;;;;;10.05;6.10;;;;;;;-145.82;100.00;61645.16;4963419;28;20023;-70
2022/01/12 07:44:14;;;;;;;17.77;8.60;;;;;;;-145.82;100.00;61645.16;4963251;28;20070;-69
2022/01/12 07:46:40;;;;;;;13.40;6.10;;;;;;;-145.82;100.00;61645.16;4962782;28;20126;-68
2022/01/12 07:49:06;;;;;;;15.60;6.35;;;;;;;-145.82;100.00;61645.16;4963521;28;21005;-70
2022/01/12 07:51:32;;;;;;;15.80;6.93;;;;;;;-145.82;100.00;61645.16;4963173;28;20042;-68
2022/01/12 07:53:57;;;;;;;10.25;6.25;;;;;;;-145.82;100.00;61645.16;4963834;28;20400;-68
2022/01/12 07:56:23;;;;;;;14.18;6.85;;;;;;;-145.82;100.00;61645.16;4965193;28;20034;-70
2022/01/12 07:58:48;;;;;;;13.77;6.70;;;;;;;-145.82;100.00;61645.16;4960945;28;20034;-68
2022/01/12 08:01:14;;;;;;;18.83;9.63;;;;;;;-145.82;100.00;61645.16;4961812;28;20417;-68
2022/01/12 08:03:39;;;;;;;12.82;6.70;;;;;;;-145.82;100.00;61645.16;4964935;28;20046;-70
2022/01/12 08:06:05;;;;;;;11.45;5.43;;;;;;;-145.82;100.00;61645.16;4963660;28;20433;-69
2022/01/12 08:08:30;;;;;;;9.88;5.10;;;;;;;-145.82;100.00;61645.16;4963791;28;20046;-69
2022/01/12 08:10:56;;;;;;;11.35;7.22;;;;;;;-145.82;100.00;61645.16;4964049;28;20077;-69
2022/01/12 08:13:21;;;;;;;14.32;7.72;;;;;;;-145.82;100.00;61645.16;4961961;28;20097;-70
2022/01/12 08:15:47;;;;;;;10.18;6.35;;;;;;;-145.82;100.00;61645.16;4962252;28;20030;-69
2022/01/12 08:18:12;;;;;;;8.63;5.55;;;;;;;-145.82;100.00;61645.16;4962993;28;20070;-70
2022/01/12 08:20:38;;;;;;;9.52;5.28;;;;;;;-145.82;100.00;61645.16;4961831;28;20050;-68
2022/01/12 08:23:03;;;;;;;11.40;5.80;;;;;;;-145.82;100.00;61645.16;4961616;28;20038;-69
2022/01/12 08:25:29;;;;;;;11.48;6.10;;;;;;;-145.82;100.00;61645.16;4963214;28;20045;-69
2022/01/12 08:27:54;;;;;;;9.60;6.10;;;;;;;-145.82;100.00;61645.16;4961730;28;20046;-70
2022/01/12 08:30:28;;;;;;;10.88;6.22;;;;;;;-145.82;100.00;61645.16;4961802;28;20568;-68
2022/01/12 08:32:54;;;;;;;7.35;4.80;;;;;;;-145.82;100.00;61645.16;4963232;28;20043;-69
2022/01/12 08:35:20;;;;;;;9.20;5.57;;;;;;;-145.82;100.00;61645.16;4965692;28;20042;-70
2022/01/12 08:37:46;;;;;;;11.10;5.80;;;;;;;-145.82;100.00;61645.16;4962497;28;20089;-69
2022/01/12 08:40:17;;;;;;;10.63;6.05;;;;;;;-145.82;100.00;61645.16;4962857;28;20285;-70
2022/01/12 08:42:43;;;;;;;14.68;7.30;;;;;;;-145.82;100.00;61645.16;4963074;28;20398;-70
2022/01/12 08:45:09;;;;;;;12.48;6.20;;;;;;;-145.82;100.00;61645.16;4963977;28;20046;-68
2022/01/12 08:47:35;;;;;;;11.75;6.50;;;;;;;-145.82;100.00;61645.16;4962539;28;20039;-68
2022/01/12 08:50:00;;;;;;;12.98;6.80;;;;;;;-145.82;100.00;61645.16;4962802;28;20402;-69
2022/01/12 08:52:30;;;;;;;27.15;11.95;;;;;;;-145.82;100.00;61645.16;4962823;28;20055;-69
2022/01/12 08:54:57;;;;;;;12.85;6.45;;;;;;;-145.82;100.00;61645.16;4963903;28;20524;-69
2022/01/12 08:57:23;;;;;;;18.65;10.23;;;;;;;-145.82;100.00;61645.16;4961773;28;20042;-68
2022/01/12 08:59:48;;;;;;;47.83;22.23;;;;;;;-145.82;100.00;61645.16;4963920;28;20509;-68
2022/01/12 09:02:14;;;;;;;36.25;16.30;;;;;;;-145.82;100.00;61645.16;4962152;28;20194;-69
2022/01/12 09:04:42;;;;;;;17.48;8.95;;;;;;;-145.82;100.00;61645.16;4963872;28;20077;-70
2022/01/12 09:07:08;;;;;;;12.02;7.78;;;;;;;-145.82;100.00;61645.16;4960182;28;20039;-70
2022/01/12 09:09:35;;;;;;;21.95;9.93;;;;;;;-145.82;100.00;61645.16;4961629;28;20469;-67
2022/01/12 09:12:02;;;;;;;15.63;8.45;;;;;;;-145.82;100.00;61645.16;4962119;28;20125;-68
2022/01/12 09:14:28;;;;;;;15.50;8.80;;;;;;;-145.82;100.00;61645.16;4964104;28;20038;-68
2022/01/12 09:16:55;;;;;;;11.23;6.45;;;;;;;-145.82;100.00;61645.16;4960965;28;20436;-70
2022/01/12 09:19:22;;;;;;;12.15;6.15;;;;;;;-145.82;100.00;61645.16;4963155;28;20042;-70
2022/01/12 09:21:47;;;;;;;7.78;4.80;;;;;;;-145.82;100.00;61645.16;4962038;28;20066;-68
2022/01/12 09:24:13;;;;;;;10.10;5.32;;;;;;;-145.82;100.00;61645.16;4961933;28;20719;-68
2022/01/12 09:26:38;;;;;;;13.15;6.00;;;;;;;-145.82;100.00;61645.16;4961809;28;20396;-69
2022/01/12 09:29:04;;;;;;;10.38;5.65;;;;;;;-145.82;100.00;61645.16;4961815;28;20101;-70
2022/01/12 09:31:30;;;;;;;9.65;5.90;;;;;;;-145.82;100.00;61645.16;4964161;28;20126;-70
2022/01/12 09:33:56;;;;;;;9.80;5.70;;;;;;;-145.82;100.00;61645.16;4962653;28;20166;-69
2022/01/12 09:36:21;;;;;;;14.15;6.20;;;;;;;-145.82;100.00;61645.16;4963990;28;20042;-69
2022/01/12 09:38:47;;;;;;;13.38;6.38;;;;;;;-145.82;100.00;61645.16;4961775;28;20063;-70
2022/01/12 09:41:13;;;;;;;14.27;6.40;;;;;;;-145.82;100.00;61645.16;4962712;28;20343;-69
2022/01/12 09:43:40;;;;;;;14.38;7.28;;;;;;;-145.82;100.00;61645.16;4963263;28;20032;-69
2022/01/12 09:46:07;;;;;;;10.43;6.63;;;;;;;-145.82;100.00;61645.16;4961723;28;20382;-69
2022/01/12 09:48:34;;;;;;;13.25;6.95;;;;;;;-145.82;100.00;61645.16;4963152;28;20418;-69
2022/01/12 09:51:04;;;;;;;13.48;6.75;;;;;;;-145.82;100.00;61645.16;4963284;28;20100;-68
2022/01/12 09:53:29;;;;;;;11.50;6.00;;;;;;;-145.82;100.00;61645.16;4964244;28;20359;-69
2022/01/12 09:55:55;;;;;;;12.95;6.75;;;;;;;-145.82;100.00;61645.16;4963352;28;20259;-69
2022/01/12 09:58:21;;;;;;;10.85;6.72;;;;;;;-145.82;100.00;61645.16;4961546;28;20115;-68
2022/01/12 10:00:56;;;;;;;11.10;6.10;;;;;;;-145.82;100.00;61645.16;4962283;28;20050;-69
2022/01/12 10:03:23;;;;;;;27.85;12.75;;;;;;;-145.82;100.00;61645.16;4963251;28;20037;-69
2022/01/12 10:05:49;;;;;;;32.47;13.68;;;;;;;-145.82;100.00;61645.16;4961920;28;20039;-68
2022/01/12 10:08:16;;;;;;;16.15;7.85;;;;;;;-145.82;100.00;61645.16;4962236;28;20061;-68
2022/01/12 10:10:47;;;;;;;18.45;8.63;;;;;;;-145.82;100.00;61645.16;4964682;28;20047;-70
2022/01/12 10:13:22;;;;;;;11.50;6.32;;;;;;;-145.82;100.00;61645.16;4961324;28;20043;-70
2022/01/12 10:15:50;;;;;;;10.90;5.90;;;;;;;-145.82;100.00;61645.16;4967331;28;20478;-69
2022/01/12 10:18:15;;;;;;;12.43;6.00;;;;;;;-145.82;100.00;61645.16;4965515;28;20054;-68
2022/01/12 10:20:46;;;;;;;12.00;5.47;;;;;;;-145.82;100.00;61645.16;4981172;28;20110;-68
2022/01/12 10:23:14;;;;;;;10.45;5.63;;;;;;;-145.82;100.00;61645.16;4965648;28;20031;-69
2022/01/12 10:25:45;;;;;;;7.90;4.00;;;;;;;-145.82;100.00;61645.16;4966706;28;20470;-70
2022/01/12 10:28:21;;;;;;;8.80;4.82;;;;;;;-145.82;100.00;61645.16;4979544;28;20390;-68
2022/01/12 10:31:02;;;;;;;10.20;6.00;;;;;;;-145.82;100.00;61645.16;4965535;28;20047;-69
2022/01/12 10:33:33;;;;;;;12.00;5.38;;;;;;;-145.82;100.00;61645.16;4967088;28;20042;-70
2022/01/12 10:36:00;;;;;;;;;;;;;;;-145.82;100.00;61645.16;4968012;28;20525;-69
2022/01/12 10:38:27;;;;;;;9.88;4.70;;;;;;;-145.82;100.00;61645.16;4964391;28;19910;-69
2022/01/12 10:40:55;;;;;;;6.97;3.30;;;;;;;-145.82;100.00;61645.16;4965233;28;20050;-71
2022/01/12 10:43:44;;;;;;;7.75;3.70;;;;;;;-145.82;100.00;61645.16;4964270;28;20046;-70
2022/01/12 10:46:14;;;;;;;8.38;3.25;;;;;;;-145.82;100.00;61645.16;4965166;28;20051;-70
2022/01/12 10:48:46;;;;;;;7.32;3.65;;;;;;;-145.82;100.00;61645.16;4967631;28;20039;-69
2022/01/12 10:51:19;;;;;;;10.35;3.85;;;;;;;-145.82;100.00;61645.16;4965731;28;20073;-68
2022/01/12 10:53:46;;;;;;;12.75;5.43;;;;;;;-145.82;100.00;61645.16;4966181;28;20038;-68
2022/01/12 10:56:14;;;;;;;10.10;4.78;;;;;;;-145.82;100.00;61645.16;4968205;28;20166;-70
2022/01/12 10:58:45;;;;;;;8.93;4.80;;;;;;;-145.82;100.00;61645.16;4966432;28;20083;-70
2022/01/12 11:01:12;;;;;;;11.57;5.60;;;;;;;-145.82;100.00;61645.16;4966454;28;20174;-69
2022/01/12 11:03:38;;;;;;;13.35;5.78;;;;;;;-145.82;100.00;61645.16;4970252;28;20106;-68
2022/01/12 11:06:04;;;;;;;9.20;4.85;;;;;;;-145.82;100.00;61645.16;4965580;28;20039;-70
2022/01/12 11:08:31;;;;;;;7.55;3.65;;;;;;;-145.82;100.00;61645.16;4964052;28;20035;-69
2022/01/12 11:10:58;;;;;;;7.65;4.15;;;;;;;-145.82;100.00;61645.16;4965459;28;20035;-69
2022/01/12 11:13:25;;;;;;;7.95;4.10;;;;;;;-145.82;100.00;61645.16;4964955;28;20037;-69
2022/01/12 11:15:52;;;;;;;10.45;5.28;;;;;;;-145.82;100.00;61645.16;4964950;28;20528;-69
2022/01/12 11:18:22;;;;;;;8.80;4.65;;;;;;;-145.82;100.00;61645.16;4965583;28;20732;-71
2022/01/12 11:20:50;;;;;;;8.27;5.05;;;;;;;-145.82;100.00;61645.16;4965574;28;20184;-69
2022/01/12 11:23:18;;;;;;;8.02;4.80;;;;;;;-145.82;100.00;61645.16;4967180;28;20550;-70
2022/01/12 11:25:46;;;;;;;9.48;4.95;;;;;;;-145.82;100.00;61645.16;4964606;28;20070;-71
2022/01/12 11:28:18;;;;;;;10.77;5.57;;;;;;;-145.82;100.00;61645.16;4964508;28;20125;-69
2022/01/12 11:31:05;;;;;;;11.23;5.63;;;;;;;-145.82;100.00;61645.16;4966098;28;20046;-70
2022/01/12 11:33:33;;;;;;;12.63;5.78;;;;;;;-145.82;100.00;61645.16;4965109;28;20151;-71
2022/01/12 11:36:05;;;;;;;10.90;5.15;;;;;;;-145.82;100.00;61645.16;4965761;28;20226;-69
2022/01/12 11:38:36;;;;;;;11.90;5.10;;;;;;;-145.82;100.00;61645.16;4964399;28;20030;-69
2022/01/12 11:41:20;;;;;;;;;;;;;;;-145.82;100.00;61645.16;4963769;28;20042;-70
2022/01/12 11:43:51;;;;;;;14.55;6.72;;;;;;;-145.82;100.00;61645.16;4962176;28;19918;-70
2022/01/12 11:46:39;;;;;;;9.55;4.18;;;;;;;-145.82;100.00;61645.16;4962086;28;20043;-71
2022/01/12 11:49:05;;;;;;;14.55;5.68;;;;;;;-145.82;100.00;61645.16;4964735;28;20039;-71
2022/01/12 11:51:36;;;;;;;12.32;6.88;;;;;;;-145.82;100.00;61645.16;4964590;28;20065;-71
2022/01/12 11:54:11;;;;;;;16.65;10.13;;;;;;;-145.82;100.00;61645.16;4962058;28;20868;-69
2022/01/12 11:56:49;;;;;;;10.20;5.50;;;;;;;-145.82;100.00;61645.16;4962858;28;20038;-69
2022/01/12 11:59:15;;;;;;;18.40;7.40;;;;;;;-145.82;100.00;61645.16;4964907;28;20517;-69
2022/01/12 12:01:48;;;;;;;14.77;7.32;;;;;;;-145.82;100.00;61645.16;4964989;28;20203;-68
2022/01/12 12:04:30;;;;;;;17.90;8.77;;;;;;;-145.82;100.00;61645.16;4964278;28;20050;-69
2022/01/12 12:07:25;;;;;;;9.88;5.97;;;;;;;-145.82;100.00;61645.16;4962227;28;20121;-70
2022/01/12 12:09:56;;;;;;;12.15;6.00;;;;;;;-145.82;100.00;61645.16;4965371;28;20056;-69
2022/01/12 12:12:23;;;;;;;17.93;7.50;;;;;;;-145.82;100.00;61645.16;4964980;28;20654;-70
2022/01/12 12:14:54;;;;;;;13.32;7.03;;;;;;;-145.82;100.00;61645.16;4965171;28;20031;-69
2022/01/12 12:17:21;;;;;;;10.90;6.68;;;;;;;-145.82;100.00;61645.16;4964100;28;20057;-68
2022/01/12 12:19:48;;;;;;;14.40;6.85;;;;;;;-145.82;100.00;61645.16;4964112;28;20026;-69
2022/01/12 12:22:19;;;;;;;13.43;6.82;;;;;;;-145.82;100.00;61645.16;4980082;28;20141;-68
2022/01/12 12:24:51;;;;;;;11.82;6.95;;;;;;;-145.82;100.00;61645.16;4963472;28;20121;-68
2022/01/12 12:27:19;;;;;;;11.52;6.07;;;;;;;-145.82;100.00;61645.16;4977571;28;20035;-70
2022/01/12 12:29:48;;;;;;;19.45;7.38;;;;;;;-145.82;100.00;61645.16;4964568;28;20287;-68
2022/01/12 12:32:14;;;;;;;19.05;6.75;;;;;;;-145.82;100.00;61645.16;4962795;28;20058;-69
2022/01/12 12:34:41;;;;;;;20.92;6.60;;;;;;;-145.82;100.00;61645.16;4964242;28;20042;-68
2022/01/12 12:37:09;;;;;;;15.45;6.18;;;;;;;-145.82;100.00;61645.16;4962524;28;20069;-69